Time;durP1;ratioP1;P1;durP2;ratioP2;P2;SDS_P1;SDS_P2;PMS_P1;PMS_P2;Temp;Humidity;BMP_temperature;BMP_pressure;BME280_temperature;BME280_humidity;BME280_pressure;Samples;Min_cycle;Max_cycle;Signal;HPM_P1;HPM_P2
2020/12/07 00:01:35;;;;;;;45.72;23.25;;;3.80;99.90;;;;;;5074151;28;20032;-67
2020/12/07 00:04:01;;;;;;;41.85;23.00;;;3.80;99.90;;;;;;5072921;28;20028;-67
2020/12/07 00:06:26;;;;;;;40.20;21.75;;;3.80;99.90;;;;;;5085819;28;20056;-67
2020/12/07 00:08:52;;;;;;;42.05;21.00;;;3.90;99.90;;;;;;5079530;28;20048;-66
2020/12/07 00:11:17;;;;;;;40.75;23.05;;;3.90;99.90;;;;;;5076461;28;20364;-67
2020/12/07 00:13:43;;;;;;;38.97;22.58;;;3.80;99.90;;;;;;5069873;28;20024;-67
2020/12/07 00:16:09;;;;;;;37.65;21.48;;;3.90;99.90;;;;;;5081422;28;20037;-67
2020/12/07 00:18:35;;;;;;;40.95;21.75;;;3.90;99.90;;;;;;5074147;28;20051;-67
2020/12/07 00:21:02;;;;;;;39.38;22.23;;;3.90;99.90;;;;;;5074124;28;20108;-67
2020/12/07 00:23:27;;;;;;;38.25;21.67;;;3.90;99.90;;;;;;5073829;28;20040;-66
2020/12/07 00:25:53;;;;;;;35.50;19.60;;;4.00;99.90;;;;;;5071967;28;20060;-67
2020/12/07 00:28:20;;;;;;;35.72;20.92;;;3.90;99.90;;;;;;5081462;28;20016;-67
2020/12/07 00:30:46;;;;;;;39.13;20.60;;;4.00;99.90;;;;;;5067598;28;20480;-67
2020/12/07 00:33:12;;;;;;;41.70;21.75;;;4.00;99.90;;;;;;5076868;28;20099;-67
2020/12/07 00:35:37;;;;;;;35.95;21.30;;;4.00;99.90;;;;;;5072490;28;20436;-67
2020/12/07 00:38:03;;;;;;;37.40;20.77;;;3.90;99.90;;;;;;5071819;28;20036;-67
2020/12/07 00:40:28;;;;;;;37.53;21.60;;;4.00;99.90;;;;;;5073800;28;20021;-67
2020/12/07 00:42:54;;;;;;;34.72;19.95;;;3.90;99.90;;;;;;5070569;28;20839;-67
2020/12/07 00:45:20;;;;;;;35.47;20.80;;;4.00;99.90;;;;;;5085122;28;20091;-66
2020/12/07 00:47:45;;;;;;;37.38;20.45;;;4.00;99.90;;;;;;5070872;28;20032;-67
2020/12/07 00:50:11;;;;;;;35.58;19.95;;;4.00;99.90;;;;;;5075022;28;20029;-67
2020/12/07 00:52:37;;;;;;;37.78;19.95;;;4.00;99.90;;;;;;5080490;28;20032;-66
2020/12/07 00:55:04;;;;;;;36.08;21.58;;;4.10;99.90;;;;;;5072647;28;20041;-67
2020/12/07 00:57:29;;;;;;;31.77;18.88;;;4.10;99.90;;;;;;5077291;28;20037;-67
2020/12/07 00:59:55;;;;;;;35.97;19.35;;;4.10;99.90;;;;;;5074890;28;20544;-67
2020/12/07 01:02:20;;;;;;;35.47;21.10;;;4.10;99.90;;;;;;5072872;28;20017;-67
2020/12/07 01:04:46;;;;;;;40.88;22.05;;;4.10;99.90;;;;;;5062812;28;20056;-67
2020/12/07 01:07:11;;;;;;;35.55;21.38;;;4.10;99.90;;;;;;5072156;28;20024;-67
2020/12/07 01:09:37;;;;;;;33.00;19.77;;;4.10;99.90;;;;;;5065835;28;20055;-67
2020/12/07 01:12:02;;;;;;;34.42;20.25;;;4.10;99.90;;;;;;5068014;28;20389;-67
2020/12/07 01:14:28;;;;;;;36.75;20.90;;;4.10;99.90;;;;;;5062369;28;20032;-67
2020/12/07 01:16:54;;;;;;;33.10;20.33;;;4.10;99.90;;;;;;5065616;28;20139;-67
2020/12/07 01:19:22;;;;;;;36.42;19.65;;;4.20;99.90;;;;;;5065947;28;20017;-68
2020/12/07 01:21:48;;;;;;;34.20;19.90;;;4.20;99.90;;;;;;5060284;28;20048;-67
2020/12/07 01:24:13;;;;;;;40.53;21.13;;;4.20;99.90;;;;;;5064208;28;20058;-67
2020/12/07 01:26:39;;;;;;;33.15;19.30;;;4.20;99.90;;;;;;5075522;28;20028;-67
2020/12/07 01:29:06;;;;;;;34.17;20.95;;;4.30;99.90;;;;;;5075720;28;20025;-68
2020/12/07 01:31:32;;;;;;;31.60;19.67;;;4.30;99.90;;;;;;5072152;28;20036;-67
2020/12/07 01:33:57;;;;;;;34.08;20.35;;;4.30;99.90;;;;;;5068914;28;20033;-67
2020/12/07 01:36:23;;;;;;;38.35;21.60;;;4.30;99.90;;;;;;5060916;28;20041;-67
2020/12/07 01:38:49;;;;;;;37.10;21.08;;;4.30;99.90;;;;;;5060907;28;20020;-67
2020/12/07 01:41:14;;;;;;;36.42;21.33;;;4.30;99.90;;;;;;5070497;28;20380;-67
2020/12/07 01:43:40;;;;;;;36.58;19.33;;;4.30;99.90;;;;;;5082388;28;20108;-67
2020/12/07 01:46:06;;;;;;;31.40;18.08;;;4.40;99.90;;;;;;5066389;28;20132;-67
2020/12/07 01:48:32;;;;;;;29.73;18.05;;;4.40;99.90;;;;;;5067592;28;20043;-66
2020/12/07 01:50:58;;;;;;;34.08;18.40;;;4.40;99.90;;;;;;5070926;28;20028;-66
2020/12/07 01:53:24;;;;;;;31.13;19.10;;;4.40;99.90;;;;;;5066979;28;20033;-66
2020/12/07 01:55:51;;;;;;;31.33;18.58;;;4.50;99.90;;;;;;5065452;28;20036;-66
2020/12/07 01:58:17;;;;;;;27.55;17.50;;;4.50;99.90;;;;;;5064341;28;20029;-66
2020/12/07 02:00:43;;;;;;;28.30;17.20;;;4.50;99.90;;;;;;5060367;28;20044;-66
2020/12/07 02:03:11;;;;;;;31.50;16.25;;;4.50;99.90;;;;;;5063611;28;20035;-66
2020/12/07 02:05:41;;;;;;;27.40;17.13;;;4.50;99.90;;;;;;5059625;28;20933;-67
2020/12/07 02:08:17;;;;;;;24.95;15.77;;;4.60;99.90;;;;;;5054204;28;20035;-67
2020/12/07 02:10:44;;;;;;;30.73;17.17;;;4.60;99.90;;;;;;5063645;28;20032;-67
2020/12/07 02:13:10;;;;;;;28.80;16.75;;;4.60;99.90;;;;;;5058881;28;20086;-67
2020/12/07 02:15:37;;;;;;;28.67;16.52;;;4.60;99.90;;;;;;5060969;28;20044;-67
2020/12/07 02:18:05;;;;;;;24.63;16.25;;;4.70;99.90;;;;;;5066188;28;20053;-67
2020/12/07 02:20:30;;;;;;;29.40;16.38;;;4.70;99.90;;;;;;5062415;28;20098;-67
2020/12/07 02:22:56;;;;;;;26.65;17.20;;;4.70;99.90;;;;;;5065584;28;20032;-67
2020/12/07 02:25:22;;;;;;;27.25;16.55;;;4.70;99.90;;;;;;5059604;28;20031;-67
2020/12/07 02:27:49;;;;;;;26.90;17.15;;;4.70;99.90;;;;;;5065493;28;20033;-67
2020/12/07 02:30:16;;;;;;;34.00;18.48;;;4.80;99.90;;;;;;5060546;28;20059;-67
2020/12/07 02:32:46;;;;;;;27.55;16.23;;;4.70;99.90;;;;;;5058911;28;20064;-67
2020/12/07 02:35:14;;;;;;;29.43;16.17;;;4.70;99.90;;;;;;5064219;28;20121;-67
2020/12/07 02:37:41;;;;;;;31.40;17.90;;;4.70;99.90;;;;;;5073253;28;20040;-67
2020/12/07 02:40:07;;;;;;;29.45;17.58;;;4.60;99.90;;;;;;5065536;28;20054;-67
2020/12/07 02:42:34;;;;;;;32.15;17.48;;;4.60;99.90;;;;;;5064983;28;20147;-67
2020/12/07 02:45:04;;;;;;;29.38;18.42;;;4.60;99.90;;;;;;5066118;28;20021;-67
2020/12/07 02:47:31;;;;;;;32.08;17.95;;;4.60;99.90;;;;;;5066615;28;20024;-67
2020/12/07 02:49:57;;;;;;;31.50;18.70;;;4.50;99.90;;;;;;5064664;28;20041;-67
2020/12/07 02:52:24;;;;;;;32.80;20.08;;;4.50;99.90;;;;;;5063126;28;20035;-67
2020/12/07 02:54:55;;;;;;;29.10;17.52;;;4.50;99.90;;;;;;5061617;28;20021;-67
2020/12/07 02:57:22;;;;;;;28.83;18.27;;;4.40;99.90;;;;;;5064138;28;20041;-67
2020/12/07 02:59:49;;;;;;;34.05;18.05;;;4.50;99.90;;;;;;5064564;28;20071;-67
2020/12/07 03:02:14;;;;;;;33.92;19.20;;;4.50;99.90;;;;;;5063280;28;20025;-67
2020/12/07 03:04:40;;;;;;;27.40;17.92;;;4.50;99.90;;;;;;5065839;28;20043;-67
2020/12/07 03:07:06;;;;;;;29.83;18.38;;;4.40;99.90;;;;;;5065932;28;20021;-67
2020/12/07 03:09:31;;;;;;;28.63;17.73;;;4.50;99.90;;;;;;5061907;28;20115;-66
2020/12/07 03:11:57;;;;;;;29.23;17.63;;;4.40;99.90;;;;;;5070741;28;20032;-67
2020/12/07 03:14:23;;;;;;;32.88;18.55;;;4.50;99.90;;;;;;5064454;28;20029;-67
2020/12/07 03:16:49;;;;;;;30.35;18.27;;;4.50;99.90;;;;;;5061874;28;20546;-66
2020/12/07 03:19:15;;;;;;;28.90;18.33;;;4.50;99.90;;;;;;5059325;28;20029;-66
2020/12/07 03:21:40;;;;;;;33.67;18.40;;;4.50;99.90;;;;;;5060104;28;20028;-67
2020/12/07 03:24:06;;;;;;;25.92;17.20;;;4.60;99.90;;;;;;5059096;28;20488;-66
2020/12/07 03:26:33;;;;;;;36.65;19.67;;;4.50;99.90;;;;;;5061341;28;20029;-66
2020/12/07 03:28:58;;;;;;;38.45;21.25;;;4.50;99.90;;;;;;5064419;28;20025;-66
2020/12/07 03:31:24;;;;;;;39.65;20.38;;;4.60;99.90;;;;;;5065348;28;20033;-66
2020/12/07 03:33:50;;;;;;;29.60;18.27;;;4.60;99.90;;;;;;5058671;28;20017;-66
2020/12/07 03:36:15;;;;;;;38.10;21.02;;;4.60;99.90;;;;;;5066999;28;20103;-66
2020/12/07 03:38:41;;;;;;;33.08;18.35;;;4.60;99.90;;;;;;5066626;28;20078;-66
2020/12/07 03:41:06;;;;;;;35.78;19.27;;;4.70;99.90;;;;;;5060679;28;20029;-66
2020/12/07 03:43:32;;;;;;;28.70;17.05;;;4.80;99.90;;;;;;5061052;28;20032;-66
2020/12/07 03:45:57;;;;;;;32.17;16.92;;;4.80;99.90;;;;;;5064193;28;20029;-66
2020/12/07 03:48:23;;;;;;;29.58;16.17;;;4.90;99.90;;;;;;5070025;28;20419;-66
2020/12/07 03:50:48;;;;;;;25.02;14.95;;;4.90;99.90;;;;;;5062430;28;20029;-66
2020/12/07 03:53:14;;;;;;;30.00;15.63;;;4.90;99.90;;;;;;5064820;28;20029;-66
2020/12/07 03:55:39;;;;;;;28.23;14.88;;;5.00;99.90;;;;;;5071453;28;20025;-66
2020/12/07 03:58:05;;;;;;;23.40;14.70;;;4.90;99.90;;;;;;5062188;28;20021;-67
2020/12/07 04:00:30;;;;;;;26.90;15.02;;;5.00;99.90;;;;;;5070412;28;20021;-68
2020/12/07 04:02:56;;;;;;;23.55;14.25;;;5.00;99.90;;;;;;5059938;28;20032;-67
2020/12/07 04:05:29;;;;;;;21.63;13.65;;;5.00;99.90;;;;;;5066957;28;20028;-67
2020/12/07 04:07:54;;;;;;;23.40;14.05;;;5.00;99.90;;;;;;5074322;28;20060;-68
2020/12/07 04:10:20;;;;;;;23.52;13.75;;;5.10;99.90;;;;;;5070816;28;20078;-68
2020/12/07 04:12:45;;;;;;;26.00;14.35;;;5.00;99.90;;;;;;5067647;28;20425;-67
2020/12/07 04:15:11;;;;;;;22.73;13.30;;;5.00;99.90;;;;;;5066934;28;20490;-67
2020/12/07 04:17:36;;;;;;;21.83;13.02;;;5.00;99.90;;;;;;5064744;28;20068;-67
2020/12/07 04:20:02;;;;;;;24.15;13.95;;;5.10;99.90;;;;;;5070448;28;20032;-67
2020/12/07 04:22:28;;;;;;;21.27;13.63;;;5.00;99.90;;;;;;5070463;28;20108;-67
2020/12/07 04:24:53;;;;;;;26.90;15.63;;;5.10;99.90;;;;;;5059661;28;20088;-67
2020/12/07 04:27:19;;;;;;;24.10;14.95;;;5.10;99.90;;;;;;5068246;28;20109;-67
2020/12/07 04:29:44;;;;;;;28.60;16.83;;;5.00;99.90;;;;;;5062267;28;20024;-68
2020/12/07 04:32:10;;;;;;;30.73;15.93;;;5.10;99.90;;;;;;5063664;28;20039;-67
2020/12/07 04:34:36;;;;;;;29.90;16.83;;;5.00;99.90;;;;;;5067797;28;20044;-67
2020/12/07 04:37:01;;;;;;;32.05;16.92;;;5.10;99.90;;;;;;5067737;28;20480;-68
2020/12/07 04:39:27;;;;;;;32.97;19.38;;;5.10;99.90;;;;;;5065516;28;20103;-67
2020/12/07 04:41:52;;;;;;;40.20;22.00;;;5.10;99.90;;;;;;5063660;28;20029;-68
2020/12/07 04:44:18;;;;;;;40.13;21.75;;;5.20;99.90;;;;;;5064428;28;20025;-68
2020/12/07 04:46:46;;;;;;;37.50;21.92;;;5.20;99.90;;;;;;5066518;28;20094;-68
2020/12/07 04:49:14;;;;;;;39.33;21.63;;;5.30;99.90;;;;;;5066744;28;20437;-68
2020/12/07 04:51:40;;;;;;;37.85;21.10;;;5.20;99.90;;;;;;5065240;28;20040;-68
2020/12/07 04:54:06;;;;;;;33.67;20.50;;;5.20;99.90;;;;;;5068508;28;20029;-67
2020/12/07 04:56:34;;;;;;;38.95;20.45;;;5.20;99.90;;;;;;5058703;28;20955;-67
2020/12/07 04:59:01;;;;;;;40.85;21.42;;;5.20;99.90;;;;;;5063993;28;20048;-68
2020/12/07 05:01:26;;;;;;;38.30;20.20;;;5.20;99.90;;;;;;5062442;28;20057;-68
2020/12/07 05:03:52;;;;;;;34.95;20.65;;;5.20;99.90;;;;;;5069510;28;20028;-68
2020/12/07 05:06:19;;;;;;;31.38;19.83;;;5.20;99.90;;;;;;5068013;28;20171;-68
2020/12/07 05:08:45;;;;;;;28.83;17.83;;;5.20;99.90;;;;;;5063972;28;20025;-67
2020/12/07 05:11:11;;;;;;;29.30;16.67;;;5.20;99.90;;;;;;5069103;28;20043;-67
2020/12/07 05:13:43;;;;;;;28.67;17.50;;;5.30;99.90;;;;;;5059300;28;20033;-68
2020/12/07 05:16:11;;;;;;;27.92;16.30;;;5.20;99.90;;;;;;5069380;28;20476;-67
2020/12/07 05:18:39;;;;;;;26.40;15.63;;;5.20;99.90;;;;;;5058949;28;20087;-68
2020/12/07 05:21:05;;;;;;;27.35;14.70;;;5.20;99.90;;;;;;5059400;28;20024;-67
2020/12/07 05:23:35;;;;;;;24.13;15.10;;;5.20;99.90;;;;;;5069987;28;20056;-67
2020/12/07 05:26:02;;;;;;;32.83;15.45;;;5.30;99.90;;;;;;5071175;28;20535;-67
2020/12/07 05:28:42;;;;;;;20.42;13.15;;;5.30;99.90;;;;;;5066198;28;20035;-67
2020/12/07 05:31:21;;;;;;;25.40;13.52;;;5.20;99.90;;;;;;5067840;28;20025;-67
2020/12/07 05:33:47;;;;;;;19.90;11.43;;;5.20;99.90;;;;;;5065279;28;20076;-67
2020/12/07 05:36:15;;;;;;;20.90;11.45;;;5.20;99.90;;;;;;5058906;28;20056;-67
2020/12/07 05:38:42;;;;;;;18.92;11.18;;;5.20;99.90;;;;;;5066456;28;20025;-68
2020/12/07 05:41:08;;;;;;;16.23;11.35;;;5.30;99.90;;;;;;5067440;28;20111;-67
2020/12/07 05:43:35;;;;;;;19.60;10.73;;;5.30;99.90;;;;;;5064874;28;20107;-68
2020/12/07 05:46:01;;;;;;;13.45;10.07;;;5.20;99.90;;;;;;5063732;28;20089;-68
2020/12/07 05:48:30;;;;;;;17.10;10.98;;;5.20;99.90;;;;;;5059951;28;20028;-67
2020/12/07 05:50:59;;;;;;;18.42;12.18;;;5.20;99.90;;;;;;5064797;28;20029;-67
2020/12/07 05:53:26;;;;;;;21.10;13.10;;;5.30;99.90;;;;;;5059394;28;20116;-67
2020/12/07 05:55:52;;;;;;;21.08;13.93;;;5.30;99.90;;;;;;5056828;28;20451;-67
2020/12/07 05:58:21;;;;;;;22.60;13.52;;;5.30;99.90;;;;;;5064177;28;20443;-67
2020/12/07 06:00:47;;;;;;;22.88;14.48;;;5.30;99.90;;;;;;5061972;28;20062;-68
2020/12/07 06:03:17;;;;;;;33.03;16.17;;;5.30;99.90;;;;;;5065794;28;20039;-68
2020/12/07 06:05:47;;;;;;;28.13;12.73;;;5.30;99.90;;;;;;5068433;28;20527;-67
2020/12/07 06:08:30;;;;;;;31.25;17.70;;;5.30;99.90;;;;;;5066623;28;20028;-68
2020/12/07 06:11:05;;;;;;;39.85;19.33;;;5.40;99.90;;;;;;5059014;28;20050;-68
2020/12/07 06:13:32;;;;;;;37.70;19.17;;;5.40;99.90;;;;;;5058955;28;20033;-68
2020/12/07 06:16:03;;;;;;;33.78;18.77;;;5.40;99.90;;;;;;5071784;28;20064;-69
2020/12/07 06:18:56;;;;;;;34.97;19.48;;;5.40;99.90;;;;;;5068987;28;20048;-67
2020/12/07 06:21:22;;;;;;;36.03;19.20;;;5.40;99.90;;;;;;5048941;28;20028;-66
2020/12/07 06:23:48;;;;;;;35.28;17.85;;;5.40;99.90;;;;;;5063768;28;20036;-66
2020/12/07 06:26:16;;;;;;;33.22;19.05;;;5.30;99.90;;;;;;5064821;28;20021;-67
2020/12/07 06:28:44;;;;;;;30.27;18.02;;;5.30;99.90;;;;;;5061252;28;20432;-67
2020/12/07 06:31:12;;;;;;;37.03;18.83;;;5.30;99.90;;;;;;5062105;28;20450;-66
2020/12/07 06:33:46;;;;;;;29.35;18.50;;;5.30;99.90;;;;;;5064788;28;20039;-67
2020/12/07 06:36:23;;;;;;;28.10;17.25;;;5.30;99.90;;;;;;5067851;28;20083;-67
2020/12/07 06:38:49;;;;;;;26.33;15.77;;;5.30;99.90;;;;;;5063256;28;20484;-67
2020/12/07 06:41:28;;;;;;;27.42;16.85;;;5.30;99.90;;;;;;5062333;28;20162;-66
2020/12/07 06:43:58;;;;;;;28.95;15.98;;;5.20;99.90;;;;;;5069670;28;20107;-67
2020/12/07 06:46:46;;;;;;;28.67;15.97;;;5.20;99.90;;;;;;5078108;28;20031;-67
2020/12/07 06:49:12;;;;;;;32.38;16.60;;;5.20;99.90;;;;;;5075800;28;20277;-67
2020/12/07 06:51:39;;;;;;;29.20;16.67;;;5.20;99.90;;;;;;5075631;28;20032;-67
2020/12/07 06:54:14;;;;;;;30.13;17.38;;;5.20;99.90;;;;;;5072826;28;20024;-67
2020/12/07 06:56:39;;;;;;;30.70;18.25;;;5.20;99.90;;;;;;5064120;28;20044;-66
2020/12/07 06:59:09;;;;;;;28.65;18.08;;;5.20;99.90;;;;;;5070853;28;20028;-67
2020/12/07 07:01:34;;;;;;;38.72;17.75;;;5.20;99.90;;;;;;5073939;28;20032;-67
2020/12/07 07:04:00;;;;;;;33.58;17.98;;;5.20;99.90;;;;;;5083865;28;20035;-67
2020/12/07 07:06:25;;;;;;;35.88;18.55;;;5.20;99.90;;;;;;5074336;28;20110;-67
2020/12/07 07:08:54;;;;;;;35.88;18.23;;;5.20;99.90;;;;;;5078924;28;20104;-67
2020/12/07 07:11:19;;;;;;;35.90;19.92;;;5.20;99.90;;;;;;5086724;28;20031;-67
2020/12/07 07:13:47;;;;;;;34.83;17.95;;;5.20;99.90;;;;;;5078531;28;20045;-67
2020/12/07 07:16:13;;;;;;;32.13;17.30;;;5.20;99.90;;;;;;5068642;28;20040;-68
2020/12/07 07:18:41;;;;;;;28.48;16.52;;;5.20;99.90;;;;;;5082746;28;20496;-67
2020/12/07 07:21:07;;;;;;;31.80;16.73;;;5.30;99.90;;;;;;5077528;28;20043;-67
2020/12/07 07:23:37;;;;;;;28.55;16.25;;;5.30;99.90;;;;;;5079753;28;20025;-66
2020/12/07 07:26:27;;;;;;;28.67;15.93;;;5.30;99.90;;;;;;5078329;28;20428;-67
2020/12/07 07:28:52;;;;;;;26.93;14.77;;;5.30;99.90;;;;;;5081976;28;20038;-67
2020/12/07 07:31:18;;;;;;;26.55;14.15;;;5.30;99.90;;;;;;5078288;28;20358;-67
2020/12/07 07:33:45;;;;;;;19.85;12.30;;;5.30;99.90;;;;;;5080465;28;20027;-67
2020/12/07 07:36:26;;;;;;;17.02;11.18;;;5.40;99.90;;;;;;5068507;28;20040;-67
2020/12/07 07:38:57;;;;;;;21.52;13.35;;;5.50;99.90;;;;;;5076627;28;20028;-67
2020/12/07 07:41:27;;;;;;;21.73;13.25;;;5.40;99.90;;;;;;5075931;28;20115;-66
2020/12/07 07:43:55;;;;;;;26.73;12.70;;;5.40;99.90;;;;;;5072135;28;20025;-67
2020/12/07 07:46:21;;;;;;;23.80;14.50;;;5.50;99.90;;;;;;5081319;28;20537;-67
2020/12/07 07:52:01;;;;;;;21.63;13.55;;;5.50;99.90;;;;;;5084921;28;20551;-67
2020/12/07 08:16:21;;;;;;;20.33;13.10;;;5.50;99.90;;;;;;5066438;28;20055;-65
2020/12/07 08:18:48;;;;;;;17.33;13.30;;;5.40;99.90;;;;;;5069610;28;20392;-65
2020/12/07 08:21:28;;;;;;;20.98;13.88;;;5.40;99.90;;;;;;5068343;28;20469;-66
2020/12/07 08:23:59;;;;;;;20.77;13.10;;;5.40;99.90;;;;;;5072351;28;20324;-66
2020/12/07 08:26:25;;;;;;;21.17;13.65;;;5.40;99.90;;;;;;5077248;28;20050;-65
2020/12/07 08:28:53;;;;;;;22.63;14.20;;;5.40;99.90;;;;;;5076748;28;20028;-66
2020/12/07 08:31:21;;;;;;;18.55;13.35;;;5.40;99.90;;;;;;5078422;28;20056;-67
2020/12/07 08:34:01;;;;;;;18.17;12.88;;;5.40;99.90;;;;;;5062294;28;20028;-67
2020/12/07 08:36:29;;;;;;;21.90;12.88;;;5.40;99.90;;;;;;5067132;28;20397;-67
2020/12/07 08:38:55;;;;;;;19.10;13.95;;;5.40;99.90;;;;;;5065610;28;20033;-68
2020/12/07 08:41:29;;;;;;;20.75;14.60;;;5.40;99.90;;;;;;5060011;28;20033;-66
2020/12/07 08:44:01;;;;;;;19.92;12.93;;;5.40;99.90;;;;;;5062159;28;20033;-66
2020/12/07 08:46:30;;;;;;;17.77;14.02;;;5.40;99.90;;;;;;5064147;28;20029;-67
2020/12/07 08:48:56;;;;;;;19.95;13.98;;;5.40;99.90;;;;;;5070639;28;20353;-66
2020/12/07 08:51:27;;;;;;;24.02;14.63;;;5.40;99.90;;;;;;5065981;28;20111;-66
2020/12/07 08:53:54;;;;;;;20.17;13.00;;;5.40;99.90;;;;;;5067971;28;20043;-66
2020/12/07 08:56:20;;;;;;;22.83;14.82;;;5.40;99.90;;;;;;5070832;28;20036;-67
2020/12/07 08:58:45;;;;;;;22.13;14.18;;;5.40;99.90;;;;;;5072113;28;20048;-66
2020/12/07 09:01:12;;;;;;;19.08;13.57;;;5.40;99.90;;;;;;5062971;28;20056;-67
2020/12/07 09:03:41;;;;;;;22.27;13.65;;;5.40;99.90;;;;;;5063420;28;20362;-66
2020/12/07 09:06:07;;;;;;;16.73;12.02;;;5.40;99.90;;;;;;5076523;28;20024;-67
2020/12/07 09:08:33;;;;;;;18.52;12.57;;;5.50;99.90;;;;;;5076132;28;20077;-67
2020/12/07 09:11:02;;;;;;;16.08;11.85;;;5.50;99.90;;;;;;5073882;28;20031;-68
2020/12/07 09:13:27;;;;;;;15.90;11.13;;;5.50;99.90;;;;;;5073011;28;20040;-67
2020/12/07 09:15:53;;;;;;;14.82;11.65;;;5.50;99.90;;;;;;5066161;28;20586;-67
2020/12/07 09:18:19;;;;;;;19.95;13.13;;;5.50;99.90;;;;;;5072704;28;20071;-67
2020/12/07 09:20:45;;;;;;;22.65;13.93;;;5.60;99.90;;;;;;5059986;28;20130;-67
2020/12/07 09:23:11;;;;;;;18.02;13.38;;;5.60;99.90;;;;;;5066005;28;20045;-66
2020/12/07 09:25:36;;;;;;;19.05;13.85;;;5.60;99.90;;;;;;5067950;28;20033;-68
2020/12/07 09:28:03;;;;;;;23.85;16.13;;;5.60;99.90;;;;;;5064764;28;20040;-67
2020/12/07 09:30:28;;;;;;;22.55;15.82;;;5.60;99.90;;;;;;5071954;28;20036;-68
2020/12/07 09:32:54;;;;;;;26.95;16.10;;;5.60;99.90;;;;;;5067091;28;20051;-68
2020/12/07 09:35:19;;;;;;;23.77;16.20;;;5.60;99.90;;;;;;5066266;28;20052;-67
2020/12/07 09:37:45;;;;;;;22.88;16.13;;;5.60;99.90;;;;;;5072849;28;20035;-67
2020/12/07 09:40:11;;;;;;;26.65;18.88;;;5.70;99.90;;;;;;5066287;28;20064;-68
2020/12/07 09:42:38;;;;;;;27.23;18.40;;;5.70;99.90;;;;;;5060272;28;20024;-67
2020/12/07 09:45:05;;;;;;;31.95;19.85;;;5.70;99.90;;;;;;5079567;28;20032;-67
2020/12/07 09:47:31;;;;;;;29.33;19.45;;;5.60;99.90;;;;;;5079453;28;20036;-67
2020/12/07 09:49:57;;;;;;;30.83;18.92;;;5.60;99.90;;;;;;5081805;28;20024;-66
2020/12/07 09:52:23;;;;;;;35.13;20.88;;;5.60;99.90;;;;;;5075639;28;20425;-67
2020/12/07 09:54:49;;;;;;;34.63;21.88;;;5.60;99.90;;;;;;5063393;28;20048;-67
2020/12/07 09:57:15;;;;;;;31.88;19.70;;;5.70;99.90;;;;;;5062339;28;20484;-67
2020/12/07 09:59:41;;;;;;;34.03;20.58;;;5.60;99.90;;;;;;5058351;28;20021;-66
2020/12/07 10:02:07;;;;;;;34.78;21.38;;;5.60;99.90;;;;;;5063993;28;20034;-66
2020/12/07 10:04:32;;;;;;;33.45;22.58;;;5.60;99.90;;;;;;5062981;28;20029;-65
2020/12/07 10:06:58;;;;;;;34.72;21.42;;;5.60;99.90;;;;;;5062692;28;20385;-66
2020/12/07 10:09:24;;;;;;;37.03;22.27;;;5.60;99.90;;;;;;5069538;28;20025;-67
2020/12/07 10:11:50;;;;;;;37.58;22.13;;;5.60;99.90;;;;;;5065171;28;20036;-67
2020/12/07 10:14:15;;;;;;;39.85;22.17;;;5.70;99.90;;;;;;5077664;28;20035;-67
2020/12/07 10:16:45;;;;;;;33.55;20.83;;;5.70;99.90;;;;;;5089555;28;20040;-67
2020/12/07 10:19:12;;;;;;;33.72;20.70;;;5.70;99.90;;;;;;5069925;28;20037;-67
2020/12/07 10:21:37;;;;;;;36.50;22.77;;;5.60;99.90;;;;;;5062962;28;20036;-68
2020/12/07 10:24:03;;;;;;;33.40;21.48;;;5.70;99.90;;;;;;5073922;28;20119;-67
2020/12/07 10:26:29;;;;;;;37.55;21.45;;;5.70;99.90;;;;;;5080066;28;20024;-69
2020/12/07 10:28:55;;;;;;;35.05;21.30;;;5.70;99.90;;;;;;5067533;28;20034;-67
2020/12/07 10:31:24;;;;;;;38.05;23.20;;;5.70;99.90;;;;;;5079400;28;20021;-67
2020/12/07 10:33:51;;;;;;;49.15;26.83;;;5.80;99.90;;;;;;5069620;28;20021;-67
2020/12/07 10:36:17;;;;;;;38.80;23.70;;;5.80;99.90;;;;;;5071144;28;20032;-67
2020/12/07 10:38:44;;;;;;;35.67;22.95;;;5.80;99.90;;;;;;5063560;28;20028;-66
2020/12/07 10:41:11;;;;;;;40.55;22.30;;;5.80;99.90;;;;;;5071912;28;20025;-67
2020/12/07 10:43:37;;;;;;;39.92;23.13;;;5.80;99.90;;;;;;5070619;28;20062;-67
2020/12/07 10:46:03;;;;;;;42.33;22.85;;;5.80;99.90;;;;;;5071888;28;20562;-68
2020/12/07 10:48:29;;;;;;;37.40;21.70;;;5.90;99.90;;;;;;5087593;28;20032;-68
2020/12/07 10:50:56;;;;;;;38.85;22.77;;;5.90;99.90;;;;;;5092323;28;20155;-67
2020/12/07 10:53:21;;;;;;;44.65;24.65;;;5.90;99.90;;;;;;5091882;28;20020;-67
2020/12/07 10:55:47;;;;;;;44.90;22.98;;;5.90;99.90;;;;;;5091571;28;20040;-67
2020/12/07 10:58:12;;;;;;;41.60;23.17;;;5.90;99.90;;;;;;5091694;28;20027;-67
2020/12/07 11:00:38;;;;;;;44.88;23.52;;;5.90;99.90;;;;;;5076304;28;20040;-68
2020/12/07 11:03:04;;;;;;;39.90;22.13;;;5.90;99.90;;;;;;5085828;28;20020;-66
2020/12/07 11:05:30;;;;;;;43.78;22.85;;;5.90;99.90;;;;;;5088259;28;20047;-66
2020/12/07 11:07:56;;;;;;;41.50;22.88;;;6.00;99.90;;;;;;5071892;28;20086;-66
2020/12/07 11:10:22;;;;;;;35.45;21.60;;;6.00;99.90;;;;;;5071568;28;20028;-66
2020/12/07 11:12:54;;;;;;;43.22;22.88;;;6.00;99.90;;;;;;5071445;28;20135;-66
2020/12/07 11:15:20;;;;;;;39.45;22.52;;;6.00;99.90;;;;;;5085714;28;20039;-66
2020/12/07 11:17:46;;;;;;;40.15;24.20;;;6.00;99.90;;;;;;5091506;28;20051;-66
2020/12/07 11:20:11;;;;;;;42.28;23.20;;;6.00;99.90;;;;;;5091158;28;20056;-66
2020/12/07 11:22:37;;;;;;;46.80;24.65;;;6.00;99.90;;;;;;5074714;28;20546;-66
2020/12/07 11:25:02;;;;;;;47.22;25.65;;;5.90;99.90;;;;;;5071624;28;20437;-66
2020/12/07 11:27:28;;;;;;;53.38;27.92;;;5.80;99.90;;;;;;5076855;28;20119;-67
2020/12/07 11:29:53;;;;;;;45.70;26.65;;;5.90;99.90;;;;;;5087672;28;20030;-67
2020/12/07 11:32:19;;;;;;;47.60;27.90;;;5.90;99.90;;;;;;5078893;28;20040;-67
2020/12/07 11:34:45;;;;;;;53.25;27.88;;;5.90;99.90;;;;;;5081872;28;20028;-66
2020/12/07 11:37:10;;;;;;;54.53;29.50;;;5.90;99.90;;;;;;5088246;28;20065;-66
2020/12/07 11:39:46;;;;;;;55.65;29.00;;;5.80;99.90;;;;;;5071456;28;20020;-69
2020/12/07 11:42:19;;;;;;;52.58;28.58;;;5.90;99.90;;;;;;5071290;28;20079;-66
2020/12/07 11:44:48;;;;;;;53.00;29.08;;;5.80;99.90;;;;;;5070928;28;20031;-66
2020/12/07 11:47:14;;;;;;;54.08;27.75;;;5.80;99.90;;;;;;5071347;28;20028;-67
2020/12/07 11:49:41;;;;;;;52.72;27.33;;;5.80;99.90;;;;;;5071092;28;20035;-67
2020/12/07 11:52:07;;;;;;;47.17;26.02;;;5.80;99.90;;;;;;5071185;28;20025;-67
2020/12/07 11:54:33;;;;;;;53.50;26.35;;;5.90;99.90;;;;;;5071904;28;20107;-67
2020/12/07 11:57:03;;;;;;;50.40;26.60;;;5.90;99.90;;;;;;5085525;28;20487;-68
2020/12/07 11:59:29;;;;;;;54.80;27.73;;;5.90;99.90;;;;;;5086713;28;20036;-66
2020/12/07 12:01:54;;;;;;;47.08;27.13;;;5.90;99.90;;;;;;5084901;28;20030;-67
2020/12/07 12:04:20;;;;;;;46.08;28.23;;;6.00;99.90;;;;;;5077746;28;20033;-66
2020/12/07 12:06:45;;;;;;;53.22;29.13;;;6.00;99.90;;;;;;5074962;28;20027;-67
2020/12/07 12:09:13;;;;;;;52.80;30.83;;;6.00;99.90;;;;;;5074592;28;20388;-66
2020/12/07 12:11:40;;;;;;;58.85;30.35;;;6.10;99.90;;;;;;5074415;28;20476;-67
2020/12/07 12:14:07;;;;;;;54.75;31.40;;;6.10;99.90;;;;;;5074510;28;20496;-66
2020/12/07 12:16:34;;;;;;;55.17;32.63;;;6.10;99.90;;;;;;5074287;28;20127;-66
2020/12/07 12:19:00;;;;;;;55.47;31.25;;;6.20;99.90;;;;;;5074052;28;20044;-66
2020/12/07 12:21:28;;;;;;;57.67;33.20;;;6.20;99.90;;;;;;5074097;28;20035;-66
2020/12/07 12:23:54;;;;;;;58.45;31.83;;;6.20;99.90;;;;;;5074062;28;20052;-66
2020/12/07 12:26:21;;;;;;;63.85;34.03;;;6.20;99.90;;;;;;5072363;28;20044;-67
2020/12/07 12:28:48;;;;;;;57.33;31.80;;;6.20;99.90;;;;;;5060933;28;20029;-66
2020/12/07 12:31:13;;;;;;;59.50;32.25;;;6.30;99.90;;;;;;5062810;28;20029;-66
2020/12/07 12:33:39;;;;;;;61.63;30.92;;;6.40;99.90;;;;;;5085515;28;20028;-66
2020/12/07 12:36:05;;;;;;;55.80;31.70;;;6.30;99.90;;;;;;5091803;28;20035;-66
2020/12/07 12:38:31;;;;;;;54.70;31.02;;;6.40;99.90;;;;;;5090344;28;20020;-66
2020/12/07 12:40:58;;;;;;;54.75;29.98;;;6.40;99.90;;;;;;5090296;28;20051;-66
2020/12/07 12:43:23;;;;;;;57.60;30.65;;;6.40;99.90;;;;;;5088371;28;20017;-66
2020/12/07 12:45:49;;;;;;;52.17;30.27;;;6.50;99.90;;;;;;5074375;28;20298;-67
2020/12/07 12:48:15;;;;;;;52.67;32.75;;;6.50;99.90;;;;;;5073622;28;20047;-67
2020/12/07 12:50:40;;;;;;;55.90;32.13;;;6.50;99.90;;;;;;5074522;28;20021;-67
2020/12/07 12:53:06;;;;;;;64.05;33.33;;;6.50;99.90;;;;;;5073945;28;20025;-67
2020/12/07 12:55:32;;;;;;;51.42;30.35;;;6.50;99.90;;;;;;5073486;28;20056;-67
2020/12/07 12:57:57;;;;;;;59.47;32.95;;;6.50;99.90;;;;;;5073759;28;20468;-67
2020/12/07 13:00:23;;;;;;;59.33;31.75;;;6.50;99.90;;;;;;5073319;28;20021;-67